Terminal Aerodrome Forecast
Issued by NWS

Home | Current Version | Previous Version | Text Only | Print | Product List | Glossary On
Versions: 1 2 3 4 5 6 7 8 9 10 11 12 13 14 15 16 17 18 19 20 21 22 23 24 25
016
FTUS41 KOKX 260522
TAFSWF
TAF
KSWF 260522Z 2606/2712 VRB03KT P6SM FEW250
     FM261500 15007KT P6SM FEW250
     FM261800 18011KT P6SM SCT050 SCT250
     FM270000 20010KT P6SM SCT025 BKN035
     FM270500 23008KT 2SM SHRA BR BKN008 OVC015
     FM271000 27008KT 6SM BR FEW008 SCT015 OVC250
      AMD NOT SKED=

USA.gov is the U.S. government's official web portal to all federal, state and local government web resources and services.